Terminal Aerodrome Forecast
Issued by NWS Twin Cities, MN

Home | Current Version | Previous Version | Graphics & Text | Print | Product List | Glossary On
Versions: 1 2 3 4 5 6 7 8 9 10 11 12 13 14 15 16 17 18
810
FTUS43 KMPX 260520
TAFSTC
TAF
KSTC 260520Z 2606/2706 03007KT 6SM BR OVC006
     FM260900 05006KT 6SM BR OVC004
     FM261400 06010KT 6SM BR OVC006
     FM261700 07012G17KT P6SM OVC015
     FM270100 07010KT P6SM OVC040=

USA.gov is the U.S. government's official web portal to all federal, state and local government web resources and services.